sensor_id;sensor_type;location;lat;lon;timestamp;temperature;humidity
66594;DHT22;53450;42.584;23.366;2024-02-21T00:00:01;3.53;82.43
66594;DHT22;53450;42.584;23.366;2024-02-21T00:02:29;3.58;82.51
66594;DHT22;53450;42.584;23.366;2024-02-21T00:04:55;3.47;82.59
66594;DHT22;53450;42.584;23.366;2024-02-21T00:07:23;3.36;82.95
66594;DHT22;53450;42.584;23.366;2024-02-21T00:09:48;3.47;82.72
66594;DHT22;53450;42.584;23.366;2024-02-21T00:12:14;3.53;82.55
66594;DHT22;53450;42.584;23.366;2024-02-21T00:14:42;3.63;82.37
66594;DHT22;53450;42.584;23.366;2024-02-21T00:17:08;3.55;82.23
66594;DHT22;53450;42.584;23.366;2024-02-21T00:19:34;3.58;81.94
66594;DHT22;53450;42.584;23.366;2024-02-21T00:22:00;3.64;81.87
66594;DHT22;53450;42.584;23.366;2024-02-21T00:24:26;3.55;81.79
66594;DHT22;53450;42.584;23.366;2024-02-21T00:26:53;3.43;81.96
66594;DHT22;53450;42.584;23.366;2024-02-21T00:29:21;3.44;82.50
66594;DHT22;53450;42.584;23.366;2024-02-21T00:31:48;3.43;82.68
66594;DHT22;53450;42.584;23.366;2024-02-21T00:34:14;3.34;82.72
66594;DHT22;53450;42.584;23.366;2024-02-21T00:36:40;3.30;83.27
66594;DHT22;53450;42.584;23.366;2024-02-21T00:39:05;3.22;83.25
66594;DHT22;53450;42.584;23.366;2024-02-21T00:41:32;3.23;83.62
66594;DHT22;53450;42.584;23.366;2024-02-21T00:44:00;3.17;83.71
66594;DHT22;53450;42.584;23.366;2024-02-21T00:46:26;3.20;83.69
66594;DHT22;53450;42.584;23.366;2024-02-21T00:48:52;3.15;83.72
66594;DHT22;53450;42.584;23.366;2024-02-21T00:51:18;3.12;83.80
66594;DHT22;53450;42.584;23.366;2024-02-21T00:53:44;3.15;83.95
66594;DHT22;53450;42.584;23.366;2024-02-21T00:56:10;3.30;83.64
66594;DHT22;53450;42.584;23.366;2024-02-21T00:58:35;3.34;83.57
66594;DHT22;53450;42.584;23.366;2024-02-21T01:01:01;3.22;83.63
66594;DHT22;53450;42.584;23.366;2024-02-21T01:03:27;3.17;83.73
66594;DHT22;53450;42.584;23.366;2024-02-21T01:05:55;3.10;84.29
66594;DHT22;53450;42.584;23.366;2024-02-21T01:08:21;3.03;84.46
66594;DHT22;53450;42.584;23.366;2024-02-21T01:10:46;3.02;84.59
66594;DHT22;53450;42.584;23.366;2024-02-21T01:13:12;3.06;84.63
66594;DHT22;53450;42.584;23.366;2024-02-21T01:15:38;2.96;84.84
66594;DHT22;53450;42.584;23.366;2024-02-21T01:18:04;2.95;85.07
66594;DHT22;53450;42.584;23.366;2024-02-21T01:20:30;2.86;85.34
66594;DHT22;53450;42.584;23.366;2024-02-21T01:22:56;2.82;85.45
66594;DHT22;53450;42.584;23.366;2024-02-21T01:25:21;2.93;85.46
66594;DHT22;53450;42.584;23.366;2024-02-21T01:27:47;2.96;85.12
66594;DHT22;53450;42.584;23.366;2024-02-21T01:30:12;3.15;85.14
66594;DHT22;53450;42.584;23.366;2024-02-21T01:32:38;3.24;84.48
66594;DHT22;53450;42.584;23.366;2024-02-21T01:35:04;3.24;84.30
66594;DHT22;53450;42.584;23.366;2024-02-21T01:37:30;3.17;84.32
66594;DHT22;53450;42.584;23.366;2024-02-21T01:39:55;3.07;84.42
66594;DHT22;53450;42.584;23.366;2024-02-21T01:42:21;3.09;84.50
66594;DHT22;53450;42.584;23.366;2024-02-21T01:44:49;3.17;84.56
66594;DHT22;53450;42.584;23.366;2024-02-21T01:47:15;3.36;84.29
66594;DHT22;53450;42.584;23.366;2024-02-21T01:49:41;3.43;83.66
66594;DHT22;53450;42.584;23.366;2024-02-21T01:52:07;3.34;83.18
66594;DHT22;53450;42.584;23.366;2024-02-21T01:54:34;3.23;83.38
66594;DHT22;53450;42.584;23.366;2024-02-21T01:57:00;3.20;83.44
66594;DHT22;53450;42.584;23.366;2024-02-21T01:59:28;3.20;83.58
66594;DHT22;53450;42.584;23.366;2024-02-21T02:01:55;3.12;83.65
66594;DHT22;53450;42.584;23.366;2024-02-21T02:04:20;3.12;83.80
66594;DHT22;53450;42.584;23.366;2024-02-21T02:06:46;3.13;83.59
66594;DHT22;53450;42.584;23.366;2024-02-21T02:09:13;3.22;83.65
66594;DHT22;53450;42.584;23.366;2024-02-21T02:11:39;3.12;83.63
66594;DHT22;53450;42.584;23.366;2024-02-21T02:14:05;3.10;83.81
66594;DHT22;53450;42.584;23.366;2024-02-21T02:16:30;3.23;83.63
66594;DHT22;53450;42.584;23.366;2024-02-21T02:18:56;3.24;83.04
66594;DHT22;53450;42.584;23.366;2024-02-21T02:21:32;3.28;83.11
66594;DHT22;53450;42.584;23.366;2024-02-21T02:23:59;3.33;82.91
66594;DHT22;53450;42.584;23.366;2024-02-21T02:26:24;3.28;82.83
66594;DHT22;53450;42.584;23.366;2024-02-21T02:28:50;3.22;82.77
66594;DHT22;53450;42.584;23.366;2024-02-21T02:31:15;3.12;82.83
66594;DHT22;53450;42.584;23.366;2024-02-21T02:33:44;3.09;83.03
66594;DHT22;53450;42.584;23.366;2024-02-21T02:36:10;3.02;83.13
66594;DHT22;53450;42.584;23.366;2024-02-21T02:38:35;2.89;83.27
66594;DHT22;53450;42.584;23.366;2024-02-21T02:41:02;2.78;83.15
66594;DHT22;53450;42.584;23.366;2024-02-21T02:43:28;2.85;82.86
66594;DHT22;53450;42.584;23.366;2024-02-21T02:45:56;2.88;82.96
66594;DHT22;53450;42.584;23.366;2024-02-21T02:48:22;2.95;82.82
66594;DHT22;53450;42.584;23.366;2024-02-21T02:50:48;3.02;82.67
66594;DHT22;53450;42.584;23.366;2024-02-21T02:53:15;3.06;82.47
66594;DHT22;53450;42.584;23.366;2024-02-21T02:55:41;3.03;82.11
66594;DHT22;53450;42.584;23.366;2024-02-21T02:58:06;3.02;81.94
66594;DHT22;53450;42.584;23.366;2024-02-21T03:00:32;2.91;81.72
66594;DHT22;53450;42.584;23.366;2024-02-21T03:03:01;2.75;81.70
66594;DHT22;53450;42.584;23.366;2024-02-21T03:05:30;2.58;81.70
66594;DHT22;53450;42.584;23.366;2024-02-21T03:07:56;2.41;81.91
66594;DHT22;53450;42.584;23.366;2024-02-21T03:10:21;2.37;82.56
66594;DHT22;53450;42.584;23.366;2024-02-21T03:12:47;2.31;82.69
66594;DHT22;53450;42.584;23.366;2024-02-21T03:15:13;2.27;82.61
66594;DHT22;53450;42.584;23.366;2024-02-21T03:17:40;2.23;82.72
66594;DHT22;53450;42.584;23.366;2024-02-21T03:20:06;2.24;83.37
66594;DHT22;53450;42.584;23.366;2024-02-21T03:22:36;2.31;83.73
66594;DHT22;53450;42.584;23.366;2024-02-21T03:25:02;2.42;83.64
66594;DHT22;53450;42.584;23.366;2024-02-21T03:27:28;2.45;83.14
66594;DHT22;53450;42.584;23.366;2024-02-21T03:29:53;2.51;83.32
66594;DHT22;53450;42.584;23.366;2024-02-21T03:32:19;2.55;83.04
66594;DHT22;53450;42.584;23.366;2024-02-21T03:34:45;2.75;82.69
66594;DHT22;53450;42.584;23.366;2024-02-21T03:37:10;2.78;82.21
66594;DHT22;53450;42.584;23.366;2024-02-21T03:39:37;2.78;82.66
66594;DHT22;53450;42.584;23.366;2024-02-21T03:42:03;2.84;82.74
66594;DHT22;53450;42.584;23.366;2024-02-21T03:44:31;2.89;82.60
66594;DHT22;53450;42.584;23.366;2024-02-21T03:46:57;2.96;82.09
66594;DHT22;53450;42.584;23.366;2024-02-21T03:49:24;3.00;82.00
66594;DHT22;53450;42.584;23.366;2024-02-21T03:51:49;3.09;81.28
66594;DHT22;53450;42.584;23.366;2024-02-21T03:54:15;2.99;81.54
66594;DHT22;53450;42.584;23.366;2024-02-21T03:56:40;2.97;81.95
66594;DHT22;53450;42.584;23.366;2024-02-21T03:59:07;3.10;82.46
66594;DHT22;53450;42.584;23.366;2024-02-21T04:01:36;3.03;82.42
66594;DHT22;53450;42.584;23.366;2024-02-21T04:04:02;2.99;82.67
66594;DHT22;53450;42.584;23.366;2024-02-21T04:06:28;2.99;83.08
66594;DHT22;53450;42.584;23.366;2024-02-21T04:08:54;2.93;83.15
66594;DHT22;53450;42.584;23.366;2024-02-21T04:11:20;2.88;83.22
66594;DHT22;53450;42.584;23.366;2024-02-21T04:13:46;2.84;83.15
66594;DHT22;53450;42.584;23.366;2024-02-21T04:16:14;2.81;83.09
66594;DHT22;53450;42.584;23.366;2024-02-21T04:18:42;2.78;82.90
66594;DHT22;53450;42.584;23.366;2024-02-21T04:21:14;2.81;82.48
66594;DHT22;53450;42.584;23.366;2024-02-21T04:23:39;2.79;82.35
66594;DHT22;53450;42.584;23.366;2024-02-21T04:26:05;2.72;82.54
66594;DHT22;53450;42.584;23.366;2024-02-21T04:28:31;2.68;82.64
66594;DHT22;53450;42.584;23.366;2024-02-21T04:30:56;2.59;82.42
66594;DHT22;53450;42.584;23.366;2024-02-21T04:33:22;2.52;82.61
66594;DHT22;53450;42.584;23.366;2024-02-21T04:35:48;2.44;82.56
66594;DHT22;53450;42.584;23.366;2024-02-21T04:38:13;2.31;82.61
66594;DHT22;53450;42.584;23.366;2024-02-21T04:40:40;2.27;82.93
66594;DHT22;53450;42.584;23.366;2024-02-21T04:43:05;2.18;83.30
66594;DHT22;53450;42.584;23.366;2024-02-21T04:45:31;2.13;83.38
66594;DHT22;53450;42.584;23.366;2024-02-21T04:47:57;2.06;83.66
66594;DHT22;53450;42.584;23.366;2024-02-21T04:50:23;2.00;83.67
66594;DHT22;53450;42.584;23.366;2024-02-21T04:52:48;1.99;83.76
66594;DHT22;53450;42.584;23.366;2024-02-21T04:55:14;1.95;83.65
66594;DHT22;53450;42.584;23.366;2024-02-21T04:57:39;1.89;83.55
66594;DHT22;53450;42.584;23.366;2024-02-21T05:00:06;1.82;83.41
66594;DHT22;53450;42.584;23.366;2024-02-21T05:02:32;1.77;83.42
66594;DHT22;53450;42.584;23.366;2024-02-21T05:04:58;1.72;83.60
66594;DHT22;53450;42.584;23.366;2024-02-21T05:07:24;1.63;84.06
66594;DHT22;53450;42.584;23.366;2024-02-21T05:09:49;1.58;84.24
66594;DHT22;53450;42.584;23.366;2024-02-21T05:12:15;1.55;84.26
66594;DHT22;53450;42.584;23.366;2024-02-21T05:14:41;1.49;84.10
66594;DHT22;53450;42.584;23.366;2024-02-21T05:17:06;1.49;83.93
66594;DHT22;53450;42.584;23.366;2024-02-21T05:19:32;1.48;84.09
66594;DHT22;53450;42.584;23.366;2024-02-21T05:21:59;1.42;84.07
66594;DHT22;53450;42.584;23.366;2024-02-21T05:24:25;1.34;84.11
66594;DHT22;53450;42.584;23.366;2024-02-21T05:26:54;1.27;84.18
66594;DHT22;53450;42.584;23.366;2024-02-21T05:29:22;1.26;84.33
66594;DHT22;53450;42.584;23.366;2024-02-21T05:34:19;1.17;84.61
66594;DHT22;53450;42.584;23.366;2024-02-21T05:36:46;1.17;84.57
66594;DHT22;53450;42.584;23.366;2024-02-21T05:39:13;1.10;84.73
66594;DHT22;53450;42.584;23.366;2024-02-21T05:41:39;1.13;84.76
66594;DHT22;53450;42.584;23.366;2024-02-21T05:44:04;1.10;84.65
66594;DHT22;53450;42.584;23.366;2024-02-21T05:46:30;1.17;84.73
66594;DHT22;53450;42.584;23.366;2024-02-21T05:48:58;1.31;84.64
66594;DHT22;53450;42.584;23.366;2024-02-21T05:51:23;1.35;84.73
66594;DHT22;53450;42.584;23.366;2024-02-21T05:53:49;1.51;84.61
66594;DHT22;53450;42.584;23.366;2024-02-21T05:56:15;1.66;84.38
66594;DHT22;53450;42.584;23.366;2024-02-21T05:58:42;1.90;84.15
66594;DHT22;53450;42.584;23.366;2024-02-21T06:01:08;1.99;83.40
66594;DHT22;53450;42.584;23.366;2024-02-21T06:03:33;2.14;83.29
66594;DHT22;53450;42.584;23.366;2024-02-21T06:06:00;2.31;83.45
66594;DHT22;53450;42.584;23.366;2024-02-21T06:08:26;2.38;83.40
66594;DHT22;53450;42.584;23.366;2024-02-21T06:10:51;2.44;83.27
66594;DHT22;53450;42.584;23.366;2024-02-21T06:13:20;2.57;83.25
66594;DHT22;53450;42.584;23.366;2024-02-21T06:15:47;2.57;82.79
66594;DHT22;53450;42.584;23.366;2024-02-21T06:18:12;2.55;82.84
66594;DHT22;53450;42.584;23.366;2024-02-21T06:20:38;2.75;82.19
66594;DHT22;53450;42.584;23.366;2024-02-21T06:23:06;2.88;81.61
66594;DHT22;53450;42.584;23.366;2024-02-21T06:25:32;2.91;81.70
66594;DHT22;53450;42.584;23.366;2024-02-21T06:27:57;3.00;82.05
66594;DHT22;53450;42.584;23.366;2024-02-21T06:30:23;3.22;80.42
66594;DHT22;53450;42.584;23.366;2024-02-21T06:32:49;3.38;80.00
66594;DHT22;53450;42.584;23.366;2024-02-21T06:35:14;3.47;80.21
66594;DHT22;53450;42.584;23.366;2024-02-21T06:37:40;3.54;79.86
66594;DHT22;53450;42.584;23.366;2024-02-21T06:40:07;3.67;79.92
66594;DHT22;53450;42.584;23.366;2024-02-21T06:42:32;3.81;79.51
66594;DHT22;53450;42.584;23.366;2024-02-21T06:44:58;3.92;79.09
66594;DHT22;53450;42.584;23.366;2024-02-21T06:47:24;3.98;79.03
66594;DHT22;53450;42.584;23.366;2024-02-21T06:49:50;4.03;79.06
66594;DHT22;53450;42.584;23.366;2024-02-21T06:52:19;4.10;78.70
66594;DHT22;53450;42.584;23.366;2024-02-21T06:54:49;4.23;78.46
66594;DHT22;53450;42.584;23.366;2024-02-21T06:57:18;4.40;77.83
66594;DHT22;53450;42.584;23.366;2024-02-21T06:59:49;4.42;77.29
66594;DHT22;53450;42.584;23.366;2024-02-21T07:02:14;4.57;76.98
66594;DHT22;53450;42.584;23.366;2024-02-21T07:04:43;4.65;76.56
66594;DHT22;53450;42.584;23.366;2024-02-21T07:07:09;4.61;76.77
66594;DHT22;53450;42.584;23.366;2024-02-21T07:09:38;4.46;77.06
66594;DHT22;53450;42.584;23.366;2024-02-21T07:12:04;4.44;77.44
66594;DHT22;53450;42.584;23.366;2024-02-21T07:14:31;4.42;77.63
66594;DHT22;53450;42.584;23.366;2024-02-21T07:16:57;4.42;77.78
66594;DHT22;53450;42.584;23.366;2024-02-21T07:19:23;4.57;77.88
66594;DHT22;53450;42.584;23.366;2024-02-21T07:21:49;4.50;77.31
66594;DHT22;53450;42.584;23.366;2024-02-21T07:24:18;4.64;77.54
66594;DHT22;53450;42.584;23.366;2024-02-21T07:26:44;4.67;77.15
66594;DHT22;53450;42.584;23.366;2024-02-21T07:29:09;4.58;77.34
66594;DHT22;53450;42.584;23.366;2024-02-21T07:31:42;4.56;77.77
66594;DHT22;53450;42.584;23.366;2024-02-21T07:34:08;4.46;78.12
66594;DHT22;53450;42.584;23.366;2024-02-21T07:36:34;4.77;77.49
66594;DHT22;53450;42.584;23.366;2024-02-21T07:39:03;4.85;77.30
66594;DHT22;53450;42.584;23.366;2024-02-21T07:41:30;4.77;76.84
66594;DHT22;53450;42.584;23.366;2024-02-21T07:43:56;4.74;77.04
66594;DHT22;53450;42.584;23.366;2024-02-21T07:46:24;4.85;76.80
66594;DHT22;53450;42.584;23.366;2024-02-21T07:48:50;5.02;76.57
66594;DHT22;53450;42.584;23.366;2024-02-21T07:51:16;5.18;75.76
66594;DHT22;53450;42.584;23.366;2024-02-21T07:53:43;5.33;75.33
66594;DHT22;53450;42.584;23.366;2024-02-21T07:56:14;5.47;74.49
66594;DHT22;53450;42.584;23.366;2024-02-21T07:58:41;5.57;74.67
66594;DHT22;53450;42.584;23.366;2024-02-21T08:01:10;5.53;74.25
66594;DHT22;53450;42.584;23.366;2024-02-21T08:03:39;5.46;74.29
66594;DHT22;53450;42.584;23.366;2024-02-21T08:06:05;5.42;74.79
66594;DHT22;53450;42.584;23.366;2024-02-21T08:08:33;5.60;74.33
66594;DHT22;53450;42.584;23.366;2024-02-21T08:11:07;5.66;73.88
66594;DHT22;53450;42.584;23.366;2024-02-21T08:13:32;5.75;73.86
66594;DHT22;53450;42.584;23.366;2024-02-21T08:16:01;5.64;73.72
66594;DHT22;53450;42.584;23.366;2024-02-21T08:18:28;5.90;73.48
66594;DHT22;53450;42.584;23.366;2024-02-21T08:20:57;5.93;73.08
66594;DHT22;53450;42.584;23.366;2024-02-21T08:23:24;5.89;72.87
66594;DHT22;53450;42.584;23.366;2024-02-21T08:25:55;5.81;73.16
66594;DHT22;53450;42.584;23.366;2024-02-21T08:28:23;6.01;72.41
66594;DHT22;53450;42.584;23.366;2024-02-21T08:30:51;6.12;72.70
66594;DHT22;53450;42.584;23.366;2024-02-21T08:33:17;6.32;71.63
66594;DHT22;53450;42.584;23.366;2024-02-21T08:35:47;6.11;71.64
66594;DHT22;53450;42.584;23.366;2024-02-21T08:38:13;6.21;71.89
66594;DHT22;53450;42.584;23.366;2024-02-21T08:40:41;6.18;70.71
66594;DHT22;53450;42.584;23.366;2024-02-21T08:43:09;6.29;70.80
66594;DHT22;53450;42.584;23.366;2024-02-21T08:45:39;6.36;70.64
66594;DHT22;53450;42.584;23.366;2024-02-21T08:48:06;6.48;69.82
66594;DHT22;53450;42.584;23.366;2024-02-21T08:50:34;6.38;70.13
66594;DHT22;53450;42.584;23.366;2024-02-21T08:53:18;6.56;69.27
66594;DHT22;53450;42.584;23.366;2024-02-21T08:55:43;6.72;68.78
66594;DHT22;53450;42.584;23.366;2024-02-21T08:58:11;6.60;69.09
66594;DHT22;53450;42.584;23.366;2024-02-21T09:00:37;6.75;69.15
66594;DHT22;53450;42.584;23.366;2024-02-21T09:03:03;6.62;68.83
66594;DHT22;53450;42.584;23.366;2024-02-21T09:05:29;6.60;67.60
66594;DHT22;53450;42.584;23.366;2024-02-21T09:07:55;6.87;67.13
66594;DHT22;53450;42.584;23.366;2024-02-21T09:10:21;6.99;65.97
66594;DHT22;53450;42.584;23.366;2024-02-21T09:12:47;7.03;65.86
66594;DHT22;53450;42.584;23.366;2024-02-21T09:15:15;7.05;66.02
66594;DHT22;53450;42.584;23.366;2024-02-21T09:17:44;7.05;65.90
66594;DHT22;53450;42.584;23.366;2024-02-21T09:20:15;7.08;64.96
66594;DHT22;53450;42.584;23.366;2024-02-21T09:22:42;7.30;65.32
66594;DHT22;53450;42.584;23.366;2024-02-21T09:25:08;7.22;65.41
66594;DHT22;53450;42.584;23.366;2024-02-21T09:27:35;7.12;66.05
66594;DHT22;53450;42.584;23.366;2024-02-21T09:30:01;7.20;65.13
66594;DHT22;53450;42.584;23.366;2024-02-21T09:32:29;7.59;64.83
66594;DHT22;53450;42.584;23.366;2024-02-21T09:34:55;7.69;63.91
66594;DHT22;53450;42.584;23.366;2024-02-21T09:37:23;7.22;64.55
66594;DHT22;53450;42.584;23.366;2024-02-21T09:39:49;7.24;65.66
66594;DHT22;53450;42.584;23.366;2024-02-21T09:42:20;7.45;65.58
66594;DHT22;53450;42.584;23.366;2024-02-21T09:44:53;7.41;65.07
66594;DHT22;53450;42.584;23.366;2024-02-21T09:47:34;7.61;65.20
66594;DHT22;53450;42.584;23.366;2024-02-21T09:50:08;7.70;64.74
66594;DHT22;53450;42.584;23.366;2024-02-21T09:52:37;7.55;64.01
66594;DHT22;53450;42.584;23.366;2024-02-21T09:55:03;7.41;65.56
66594;DHT22;53450;42.584;23.366;2024-02-21T09:57:30;7.55;65.28
66594;DHT22;53450;42.584;23.366;2024-02-21T09:59:57;7.63;64.98
66594;DHT22;53450;42.584;23.366;2024-02-21T10:02:26;7.41;64.65
66594;DHT22;53450;42.584;23.366;2024-02-21T10:04:52;7.56;65.12
66594;DHT22;53450;42.584;23.366;2024-02-21T10:07:17;7.58;64.66
66594;DHT22;53450;42.584;23.366;2024-02-21T10:09:48;7.31;63.97
66594;DHT22;53450;42.584;23.366;2024-02-21T10:12:14;7.21;63.79
66594;DHT22;53450;42.584;23.366;2024-02-21T10:14:40;7.35;63.39
66594;DHT22;53450;42.584;23.366;2024-02-21T10:17:06;7.32;62.85
66594;DHT22;53450;42.584;23.366;2024-02-21T10:19:35;7.12;64.06
66594;DHT22;53450;42.584;23.366;2024-02-21T10:22:04;7.12;64.99
66594;DHT22;53450;42.584;23.366;2024-02-21T10:24:31;7.12;65.41
66594;DHT22;53450;42.584;23.366;2024-02-21T10:27:08;7.10;65.98
66594;DHT22;53450;42.584;23.366;2024-02-21T10:29:35;7.20;66.01
66594;DHT22;53450;42.584;23.366;2024-02-21T10:32:11;7.21;64.24
66594;DHT22;53450;42.584;23.366;2024-02-21T10:34:38;7.17;62.71
66594;DHT22;53450;42.584;23.366;2024-02-21T10:37:06;7.18;62.51
66594;DHT22;53450;42.584;23.366;2024-02-21T10:39:42;7.28;60.80
66594;DHT22;53450;42.584;23.366;2024-02-21T10:42:14;7.41;60.59
66594;DHT22;53450;42.584;23.366;2024-02-21T10:44:41;7.36;60.36
66594;DHT22;53450;42.584;23.366;2024-02-21T10:47:09;7.47;59.92
66594;DHT22;53450;42.584;23.366;2024-02-21T10:49:39;7.49;60.41
66594;DHT22;53450;42.584;23.366;2024-02-21T10:52:14;7.58;59.24
66594;DHT22;53450;42.584;23.366;2024-02-21T10:55:33;7.61;58.45
66594;DHT22;53450;42.584;23.366;2024-02-21T10:57:52;7.63;59.23
66594;DHT22;53450;42.584;23.366;2024-02-21T11:00:19;7.73;58.82
66594;DHT22;53450;42.584;23.366;2024-02-21T11:02:51;7.76;59.06
66594;DHT22;53450;42.584;23.366;2024-02-21T11:05:17;7.90;57.93
66594;DHT22;53450;42.584;23.366;2024-02-21T11:07:43;7.93;56.70
66594;DHT22;53450;42.584;23.366;2024-02-21T11:10:23;8.16;57.26
66594;DHT22;53450;42.584;23.366;2024-02-21T11:12:52;8.01;55.17
66594;DHT22;53450;42.584;23.366;2024-02-21T11:15:26;8.06;56.24
66594;DHT22;53450;42.584;23.366;2024-02-21T11:17:56;8.33;57.31
66594;DHT22;53450;42.584;23.366;2024-02-21T11:20:32;8.09;58.12
66594;DHT22;53450;42.584;23.366;2024-02-21T11:22:58;8.06;57.86
66594;DHT22;53450;42.584;23.366;2024-02-21T11:25:24;8.09;57.13
66594;DHT22;53450;42.584;23.366;2024-02-21T11:27:50;8.26;54.68
66594;DHT22;53450;42.584;23.366;2024-02-21T11:30:16;8.41;55.41
66594;DHT22;53450;42.584;23.366;2024-02-21T11:32:47;8.37;55.66
66594;DHT22;53450;42.584;23.366;2024-02-21T11:35:19;8.28;54.92
66594;DHT22;53450;42.584;23.366;2024-02-21T11:37:45;8.27;54.28
66594;DHT22;53450;42.584;23.366;2024-02-21T11:40:12;8.33;54.42
66594;DHT22;53450;42.584;23.366;2024-02-21T11:42:38;8.64;55.07
66594;DHT22;53450;42.584;23.366;2024-02-21T11:45:03;8.40;53.34
66594;DHT22;53450;42.584;23.366;2024-02-21T11:47:29;8.52;53.78
66594;DHT22;53450;42.584;23.366;2024-02-21T11:49:55;8.11;54.96
66594;DHT22;53450;42.584;23.366;2024-02-21T11:52:26;8.19;55.87
66594;DHT22;53450;42.584;23.366;2024-02-21T11:54:54;8.01;56.84
66594;DHT22;53450;42.584;23.366;2024-02-21T11:57:21;7.99;57.72
66594;DHT22;53450;42.584;23.366;2024-02-21T11:59:47;7.94;57.86
66594;DHT22;53450;42.584;23.366;2024-02-21T12:02:14;7.94;57.05
66594;DHT22;53450;42.584;23.366;2024-02-21T12:04:40;7.59;57.48
66594;DHT22;53450;42.584;23.366;2024-02-21T12:07:05;7.61;57.44
66594;DHT22;53450;42.584;23.366;2024-02-21T12:09:34;7.66;58.22
66594;DHT22;53450;42.584;23.366;2024-02-21T12:12:02;7.73;57.79
66594;DHT22;53450;42.584;23.366;2024-02-21T12:14:31;7.83;57.53
66594;DHT22;53450;42.584;23.366;2024-02-21T12:16:58;7.89;57.96
66594;DHT22;53450;42.584;23.366;2024-02-21T12:19:24;7.79;58.68
66594;DHT22;53450;42.584;23.366;2024-02-21T12:21:49;7.72;59.90
66594;DHT22;53450;42.584;23.366;2024-02-21T12:24:25;7.75;60.32
66594;DHT22;53450;42.584;23.366;2024-02-21T12:26:52;7.80;59.95
66594;DHT22;53450;42.584;23.366;2024-02-21T12:29:19;7.75;60.44
66594;DHT22;53450;42.584;23.366;2024-02-21T12:31:45;7.80;60.52
66594;DHT22;53450;42.584;23.366;2024-02-21T12:34:11;7.78;59.73
66594;DHT22;53450;42.584;23.366;2024-02-21T12:36:43;7.65;60.03
66594;DHT22;53450;42.584;23.366;2024-02-21T12:39:12;7.68;60.28
66594;DHT22;53450;42.584;23.366;2024-02-21T12:41:43;7.56;60.09
66594;DHT22;53450;42.584;23.366;2024-02-21T12:44:11;7.39;60.35
66594;DHT22;53450;42.584;23.366;2024-02-21T12:46:40;7.34;61.21
66594;DHT22;53450;42.584;23.366;2024-02-21T12:49:18;7.36;61.67
66594;DHT22;53450;42.584;23.366;2024-02-21T12:51:47;7.35;62.26
66594;DHT22;53450;42.584;23.366;2024-02-21T12:54:15;7.25;64.00
66594;DHT22;53450;42.584;23.366;2024-02-21T12:56:44;7.24;65.00
66594;DHT22;53450;42.584;23.366;2024-02-21T12:59:15;7.14;65.99
66594;DHT22;53450;42.584;23.366;2024-02-21T13:01:41;7.07;67.63
66594;DHT22;53450;42.584;23.366;2024-02-21T13:04:09;7.00;69.45
66594;DHT22;53450;42.584;23.366;2024-02-21T13:06:37;7.01;69.75
66594;DHT22;53450;42.584;23.366;2024-02-21T13:09:03;6.97;68.91
66594;DHT22;53450;42.584;23.366;2024-02-21T13:11:35;7.07;69.03
66594;DHT22;53450;42.584;23.366;2024-02-21T13:14:00;6.90;70.05
66594;DHT22;53450;42.584;23.366;2024-02-21T13:16:26;6.84;69.38
66594;DHT22;53450;42.584;23.366;2024-02-21T13:18:55;6.97;69.82
66594;DHT22;53450;42.584;23.366;2024-02-21T13:21:21;7.10;70.07
66594;DHT22;53450;42.584;23.366;2024-02-21T13:23:57;7.15;69.78
66594;DHT22;53450;42.584;23.366;2024-02-21T13:26:56;7.22;69.94
66594;DHT22;53450;42.584;23.366;2024-02-21T13:29:39;7.27;68.92
66594;DHT22;53450;42.584;23.366;2024-02-21T13:32:33;7.21;68.69
66594;DHT22;53450;42.584;23.366;2024-02-21T13:35:01;7.15;63.76
66594;DHT22;53450;42.584;23.366;2024-02-21T13:37:28;7.24;61.69
66594;DHT22;53450;42.584;23.366;2024-02-21T13:39:54;7.20;60.19
66594;DHT22;53450;42.584;23.366;2024-02-21T13:42:27;7.34;61.76
66594;DHT22;53450;42.584;23.366;2024-02-21T13:44:59;7.39;61.36
66594;DHT22;53450;42.584;23.366;2024-02-21T13:47:37;7.14;63.57
66594;DHT22;53450;42.584;23.366;2024-02-21T13:50:15;6.84;66.95
66594;DHT22;53450;42.584;23.366;2024-02-21T13:52:54;6.66;69.14
66594;DHT22;53450;42.584;23.366;2024-02-21T13:55:35;6.83;69.97
66594;DHT22;53450;42.584;23.366;2024-02-21T13:58:02;6.73;69.67
66594;DHT22;53450;42.584;23.366;2024-02-21T14:00:28;6.79;70.32
66594;DHT22;53450;42.584;23.366;2024-02-21T14:02:57;6.52;70.05
66594;DHT22;53450;42.584;23.366;2024-02-21T14:05:25;6.53;69.67
66594;DHT22;53450;42.584;23.366;2024-02-21T14:07:54;6.54;69.65
66594;DHT22;53450;42.584;23.366;2024-02-21T14:10:28;6.63;68.75
66594;DHT22;53450;42.584;23.366;2024-02-21T14:13:05;6.84;68.84
66594;DHT22;53450;42.584;23.366;2024-02-21T14:15:39;6.76;68.36
66594;DHT22;53450;42.584;23.366;2024-02-21T14:18:12;6.75;67.80
66594;DHT22;53450;42.584;23.366;2024-02-21T14:20:53;6.73;67.92
66594;DHT22;53450;42.584;23.366;2024-02-21T14:23:40;6.72;68.03
66594;DHT22;53450;42.584;23.366;2024-02-21T14:26:31;6.57;68.09
66594;DHT22;53450;42.584;23.366;2024-02-21T14:29:22;6.68;68.72
66594;DHT22;53450;42.584;23.366;2024-02-21T14:31:54;6.66;68.84
66594;DHT22;53450;42.584;23.366;2024-02-21T14:34:29;6.63;69.13
66594;DHT22;53450;42.584;23.366;2024-02-21T14:37:05;6.57;69.31
66594;DHT22;53450;42.584;23.366;2024-02-21T14:39:34;6.56;69.89
66594;DHT22;53450;42.584;23.366;2024-02-21T14:42:24;6.68;70.22
66594;DHT22;53450;42.584;23.366;2024-02-21T14:44:53;6.72;69.92
66594;DHT22;53450;42.584;23.366;2024-02-21T14:47:34;6.59;70.95
66594;DHT22;53450;42.584;23.366;2024-02-21T14:50:08;6.53;71.29
66594;DHT22;53450;42.584;23.366;2024-02-21T14:52:59;6.53;71.65
66594;DHT22;53450;42.584;23.366;2024-02-21T14:55:35;6.53;71.99
66594;DHT22;53450;42.584;23.366;2024-02-21T14:58:09;6.53;71.87
66594;DHT22;53450;42.584;23.366;2024-02-21T15:00:37;6.36;71.45
66594;DHT22;53450;42.584;23.366;2024-02-21T15:03:10;6.24;71.17
66594;DHT22;53450;42.584;23.366;2024-02-21T15:05:47;6.12;71.46
66594;DHT22;53450;42.584;23.366;2024-02-21T15:08:26;6.17;71.61
66594;DHT22;53450;42.584;23.366;2024-02-21T15:10:55;6.28;71.71
66594;DHT22;53450;42.584;23.366;2024-02-21T15:13:20;6.18;72.11
66594;DHT22;53450;42.584;23.366;2024-02-21T15:15:48;5.95;72.64
66594;DHT22;53450;42.584;23.366;2024-02-21T15:18:19;6.05;72.82
66594;DHT22;53450;42.584;23.366;2024-02-21T15:20:58;5.97;73.52
66594;DHT22;53450;42.584;23.366;2024-02-21T15:23:46;5.84;74.53
66594;DHT22;53450;42.584;23.366;2024-02-21T15:26:26;5.74;75.11
66594;DHT22;53450;42.584;23.366;2024-02-21T15:28:54;5.63;75.73
66594;DHT22;53450;42.584;23.366;2024-02-21T15:31:23;5.50;76.55
66594;DHT22;53450;42.584;23.366;2024-02-21T15:33:56;5.40;77.63
66594;DHT22;53450;42.584;23.366;2024-02-21T15:36:22;5.23;78.19
66594;DHT22;53450;42.584;23.366;2024-02-21T15:38:59;5.08;78.74